ESMT/HAD METAR and TAF weather

Enter ICAO airport designator
Station Type Date Time Source
ESMT METAR 2018/07/21 11:50 UTC NOAA

ESMT 211150Z AUTO 28011KT 9999 NCD 21/14 Q1012


Station Type Date Time Source
ESMT Decoded METAR 2018/07/21 11:50 UTC NOAA

Halmstad Swedish Air Force Base , Sweden (ESMT) 56-41N 012-50E
Jul 21, 2018 - 07:50 AM EDT / 2018.07.21 1150 UTC
Wind: from the W (280 degrees) at 13 MPH (11 KT):0
Visibility: greater than 7 mile(s):0
Temperature: 69 F (21 C)
Dew Point: 57 F (14 C)
Relative Humidity: 64%
Pressure (altimeter): 29.88 in. Hg (1012 hPa)
ob: ESMT 211150Z AUTO 28011KT 9999 NCD 21/14 Q1012
cycle: 12

Station Type Date Time Source
ESMT TAF 2017/04/24 06:33 UTC NOAA

TAF TAF ESMT 240513Z 2406/2506 22018KT 9999 BKN018
TEMPO 2406/2413 22018G30KT 4000 RADZ BKN008
TEMPO 2413/2415 24020G30KT 4000 SHRA BKN014 SCT020CB


Example: see airport list